Katherine Berry — WDD5997 — position and weather

sailwx.info

Track history (hours):
 
Tides and Currents Weather Stations Pressure Air Temp Water Temp Dewpoint Dewpoint Depression Visibility Wind Speed Wind Dir Waves Ship Positions

Katherine Berry

Owner: Magnolia Marine Transport Co., Vicksburg, MS. More information available from US FCC via Universal Licensing System and Coast Guard Vessel Documentation Center.

Last reported at 2017-Oct-14 09:28 UTC. Time now 2017-Oct-17 11:23 UTC.
Position N 29°57' W 090°23'.

Length 34 m; draft 3 m.

Type: Towing. MMSI: 367166940.

Date/timePositionNaut miles runAvg speedWind from/ knotsBaromVisibWave heightAir tempDewpointWater temp
2017-Oct-14 09:28N 29°57' W 090°23'0 0.0
2017-Oct-14 09:00N 29°57' W 090°23'  
2017-Oct-08 15:50N 29°50' W 091°60'2 6.0
2017-Oct-08 15:30N 29°49' W 092°02'3 5.7
2017-Oct-08 15:00N 29°48' W 092°05'3 5.6
2017-Oct-08 14:30N 29°47' W 092°08'3 5.3
2017-Oct-08 14:00N 29°47' W 092°11'1 2.9
2017-Oct-08 13:30N 29°47' W 092°12'0 0.8
2017-Oct-08 13:00N 29°47' W 092°13'2 4.1
2017-Oct-08 12:30N 29°48' W 092°15'3 5.1
2017-Oct-08 12:00N 29°49' W 092°18'3 4.2
2017-Oct-08 11:16N 29°51' W 092°21'35 5.0
2017-Oct-08 04:20N 29°56' W 093°00'2 5.7
2017-Oct-08 04:00N 29°56' W 093°03'3 5.6
2017-Oct-08 03:30N 29°56' W 093°06'3 5.3
2017-Oct-08 03:00N 29°56' W 093°09'2 4.6
2017-Oct-08 02:30N 29°58' W 093°11'3 5.4
2017-Oct-08 02:00N 29°60' W 093°13'2 4.9
2017-Oct-08 01:30N 30°02' W 093°14'2 4.3
2017-Oct-08 01:00N 30°03' W 093°16'2 4.1
2017-Oct-08 00:30N 30°05' W 093°17'1 1.6
2017-Oct-08 00:00N 30°06' W 093°18'0 1.0
2017-Oct-07 23:30N 30°06' W 093°18'0 0.0
2017-Oct-07 23:00N 30°06' W 093°18'0 0.0
2017-Oct-07 22:30N 30°06' W 093°18'0 0.1
2017-Oct-07 22:00N 30°06' W 093°18'0 0.1
2017-Oct-07 21:30N 30°06' W 093°18'0 0.1
2017-Oct-07 21:00N 30°06' W 093°18'0 0.1
2017-Oct-07 20:30N 30°06' W 093°18'1 1.1
2017-Oct-07 20:00N 30°06' W 093°19'0 0.3
2017-Oct-07 19:30N 30°06' W 093°19'0 0.0
2017-Oct-07 18:58N 30°06' W 093°19'1 2.2
2017-Oct-07 18:30N 30°06' W 093°19'3 5.4
2017-Oct-07 18:00N 30°04' W 093°22'3 6.6
2017-Oct-07 17:30N 30°04' W 093°25'3 6.8
2017-Oct-07 17:00N 30°04' W 093°29'3 6.8
2017-Oct-07 16:30N 30°04' W 093°33'3 6.8
2017-Oct-07 16:00N 30°04' W 093°37'73 5.3
2017-Oct-07 02:06N 29°30' W 094°52'1 8.3
2017-Oct-07 02:00N 29°30' W 094°52'4 8.1
2017-Oct-07 01:30N 29°34' W 094°55'4 8.0
2017-Oct-07 01:00N 29°37' W 094°57'4 8.1
2017-Oct-07 00:30N 29°41' W 094°59'3 5.8
2017-Oct-07 00:00N 29°42' W 095°02'1 1.7
2017-Oct-06 23:30N 29°43' W 095°03'0 0.0
2017-Oct-06 23:00N 29°43' W 095°03'0 0.0
2017-Oct-06 22:30N 29°43' W 095°03'0 0.0
2017-Oct-06 21:59N 29°43' W 095°03'0 0.1
2017-Oct-06 21:25N 29°42' W 095°03'0 0.2
2017-Oct-06 21:00N 29°43' W 095°03'0 0.1
2017-Oct-06 20:29N 29°42' W 095°03'0 0.0
2017-Oct-06 19:59N 29°42' W 095°03'0 0.0
2017-Oct-06 19:29N 29°42' W 095°03'0 0.0
2017-Oct-06 18:59N 29°42' W 095°03'0 0.0
2017-Oct-06 18:29N 29°42' W 095°03'0 0.0
2017-Oct-06 17:59N 29°42' W 095°03'0 0.0
2017-Oct-06 17:29N 29°42' W 095°03'0 0.0
2017-Oct-06 16:59N 29°42' W 095°03'0 0.0
2017-Oct-06 16:29N 29°42' W 095°03'0 0.0
2017-Oct-06 15:59N 29°42' W 095°03'0 0.0
2017-Oct-06 15:29N 29°42' W 095°03'0 0.0
2017-Oct-06 14:59N 29°42' W 095°03'0 0.0
2017-Oct-06 14:29N 29°42' W 095°03'0 0.0
2017-Oct-06 13:56N 29°42' W 095°03'0 0.0
2017-Oct-06 13:29N 29°42' W 095°03'0 0.0
2017-Oct-06 12:59N 29°42' W 095°03'0 0.0
2017-Oct-06 12:29N 29°42' W 095°03'0 0.0
2017-Oct-06 11:59N 29°42' W 095°03'0 0.0
2017-Oct-06 11:29N 29°42' W 095°03'0 0.0
2017-Oct-06 10:59N 29°42' W 095°03'0 0.0
2017-Oct-06 10:29N 29°42' W 095°03'0 0.0
2017-Oct-06 09:59N 29°42' W 095°03'0 0.0
2017-Oct-06 09:29N 29°42' W 095°03'0 0.0
2017-Oct-06 08:59N 29°42' W 095°03'0 0.0
2017-Oct-06 08:29N 29°42' W 095°03'0 0.0
2017-Oct-06 07:59N 29°42' W 095°03'0 0.0
2017-Oct-06 07:29N 29°42' W 095°03'0 0.0
2017-Oct-06 06:59N 29°42' W 095°03'0 0.0
2017-Oct-06 06:29N 29°42' W 095°03'0 0.0
2017-Oct-06 05:59N 29°42' W 095°03'0 0.0
2017-Oct-06 05:29N 29°42' W 095°03'0 0.0
2017-Oct-06 04:59N 29°42' W 095°03'0 0.0
2017-Oct-06 04:29N 29°42' W 095°03'0 0.0
2017-Oct-06 03:59N 29°42' W 095°03'0 0.0
2017-Oct-06 03:29N 29°42' W 095°03'0 0.0
2017-Oct-06 02:59N 29°42' W 095°03'0 0.0
2017-Oct-06 02:29N 29°42' W 095°03'0 0.0
2017-Oct-06 01:59N 29°42' W 095°03'0 0.0
2017-Oct-06 01:29N 29°42' W 095°03'0 0.0
2017-Oct-06 00:59N 29°42' W 095°03'0 0.0
2017-Oct-06 00:29N 29°42' W 095°03'0 0.0
2017-Oct-05 23:59N 29°42' W 095°03'0 0.0
2017-Oct-05 23:29N 29°42' W 095°03'0 0.0
2017-Oct-05 22:59N 29°42' W 095°03'0 0.0
2017-Oct-05 22:29N 29°42' W 095°03'0 0.0
2017-Oct-05 21:59N 29°42' W 095°03'0 0.0
2017-Oct-05 21:29N 29°42' W 095°03'0 0.0
2017-Oct-05 20:59N 29°42' W 095°03'0 0.0
2017-Oct-05 20:29N 29°42' W 095°03'0 0.0
2017-Oct-05 19:59N 29°42' W 095°03'0 0.0
2017-Oct-05 19:29N 29°42' W 095°03'0 0.0
2017-Oct-05 18:59N 29°42' W 095°03'0 0.0
2017-Oct-05 18:29N 29°42' W 095°03'0 0.0
2017-Oct-05 17:59N 29°42' W 095°03'0 0.0
2017-Oct-05 17:29N 29°42' W 095°03'0 0.0
2017-Oct-05 16:59N 29°42' W 095°03'0 0.0
2017-Oct-05 15:29N 29°42' W 095°03'0 0.0
2017-Oct-05 14:59N 29°42' W 095°03'0 0.0
2017-Oct-05 14:29N 29°42' W 095°03'0 0.0
2017-Oct-05 13:59N 29°42' W 095°03'0 0.0
2017-Oct-05 13:29N 29°42' W 095°03'0 0.0
2017-Oct-05 12:59N 29°42' W 095°03'0 0.0
2017-Oct-05 12:29N 29°42' W 095°03'0 0.0
2017-Oct-05 11:59N 29°42' W 095°03'0 0.0
2017-Oct-05 11:29N 29°42' W 095°03'0 0.0
2017-Oct-05 10:59N 29°42' W 095°03'0 0.0
2017-Oct-05 10:23N 29°42' W 095°03'0 0.0
2017-Oct-05 09:56N 29°42' W 095°03'0 0.0
2017-Oct-05 09:29N 29°42' W 095°03'0 0.0
2017-Oct-05 08:56N 29°42' W 095°03'0 0.0
2017-Oct-05 08:26N 29°42' W 095°03'0 0.0
2017-Oct-05 07:53N 29°42' W 095°03'0 0.0
2017-Oct-05 07:29N 29°42' W 095°03'0 0.0
2017-Oct-05 06:59N 29°42' W 095°03'0 0.0
2017-Oct-05 06:29N 29°42' W 095°03'0 0.0
2017-Oct-05 05:56N 29°42' W 095°03'0 0.0
2017-Oct-05 05:26N 29°42' W 095°03'0 0.0
2017-Oct-05 04:59N 29°42' W 095°03'0 0.0
2017-Oct-05 04:26N 29°42' W 095°03'0 0.0
2017-Oct-05 03:59N 29°42' W 095°03'0 0.0
2017-Oct-05 03:26N 29°42' W 095°03'0 0.0
2017-Oct-05 02:56N 29°42' W 095°03'0 0.0
2017-Oct-05 02:29N 29°42' W 095°03'0 0.0
2017-Oct-05 01:59N 29°42' W 095°03'0 0.0
2017-Oct-05 01:29N 29°42' W 095°03'0 0.0
2017-Oct-05 00:59N 29°42' W 095°03'0 0.0
2017-Oct-05 00:29N 29°42' W 095°03'0 0.0
2017-Oct-04 23:59N 29°42' W 095°03'0 0.0
2017-Oct-04 23:26N 29°42' W 095°03'0 0.0
2017-Oct-04 22:47N 29°42' W 095°03'0 0.0
2017-Oct-04 22:29N 29°42' W 095°03'0 0.0
2017-Oct-04 21:56N 29°42' W 095°03'0 0.0
2017-Oct-04 21:23N 29°42' W 095°03'0 0.0
2017-Oct-04 20:59N 29°42' W 095°03'0 0.0
2017-Oct-04 20:29N 29°42' W 095°03'0 0.0
2017-Oct-04 19:59N 29°42' W 095°03'0 0.0
2017-Oct-04 19:29N 29°42' W 095°03'0 0.0
2017-Oct-04 18:59N 29°42' W 095°03'0 0.0
2017-Oct-04 18:26N 29°42' W 095°03'0 0.0
2017-Oct-04 17:59N 29°42' W 095°03'0 0.0
2017-Oct-04 17:26N 29°42' W 095°03'0 0.0
2017-Oct-04 16:56N 29°42' W 095°03'0 0.0
2017-Oct-04 16:20N 29°42' W 095°03'0 0.0
2017-Oct-04 15:56N 29°42' W 095°03'0 0.0
2017-Oct-04 15:29N 29°42' W 095°03'0 0.0
2017-Oct-04 14:59N 29°42' W 095°03'0 0.0
2017-Oct-04 14:29N 29°42' W 095°03'0 0.0
2017-Oct-04 13:59N 29°42' W 095°03'0 0.0
2017-Oct-04 13:29N 29°42' W 095°03'0 0.0
2017-Oct-04 12:59N 29°42' W 095°03'0 0.0
2017-Oct-04 12:29N 29°42' W 095°03'0 0.0
2017-Oct-04 11:59N 29°42' W 095°03'0 0.0
2017-Oct-04 11:29N 29°42' W 095°03'0 0.0
2017-Oct-04 10:59N 29°42' W 095°03'0 0.0
2017-Oct-04 10:23N 29°42' W 095°03'0 0.0
2017-Oct-04 09:59N 29°42' W 095°03'  
Track history (hours):
 
Tides and Currents Weather Stations Pressure Air Temp Water Temp Dewpoint Dewpoint Depression Visibility Wind Speed Wind Dir Waves Ship Positions

Katherine Berry

Owner: Magnolia Marine Transport Co., Vicksburg, MS. More information available from US FCC via Universal Licensing System and Coast Guard Vessel Documentation Center.

Last reported at 2017-Oct-14 09:28 UTC. Time now 2017-Oct-17 11:23 UTC.
Position N 29°57' W 090°23'.

Length 34 m; draft 3 m.

Type: Towing. MMSI: 367166940.

Date/timePositionNaut miles runAvg speedWind from/ knotsBaromVisibWave heightAir tempDewpointWater temp
2017-Oct-14 09:28N 29°57' W 090°23'0 0.0
2017-Oct-14 09:00N 29°57' W 090°23'  
2017-Oct-08 15:50N 29°50' W 091°60'2 6.0
2017-Oct-08 15:30N 29°49' W 092°02'3 5.7
2017-Oct-08 15:00N 29°48' W 092°05'3 5.6
2017-Oct-08 14:30N 29°47' W 092°08'3 5.3
2017-Oct-08 14:00N 29°47' W 092°11'1 2.9
2017-Oct-08 13:30N 29°47' W 092°12'0 0.8
2017-Oct-08 13:00N 29°47' W 092°13'2 4.1
2017-Oct-08 12:30N 29°48' W 092°15'3 5.1
2017-Oct-08 12:00N 29°49' W 092°18'3 4.2
2017-Oct-08 11:16N 29°51' W 092°21'35 5.0
2017-Oct-08 04:20N 29°56' W 093°00'2 5.7
2017-Oct-08 04:00N 29°56' W 093°03'3 5.6
2017-Oct-08 03:30N 29°56' W 093°06'3 5.3
2017-Oct-08 03:00N 29°56' W 093°09'2 4.6
2017-Oct-08 02:30N 29°58' W 093°11'3 5.4
2017-Oct-08 02:00N 29°60' W 093°13'2 4.9
2017-Oct-08 01:30N 30°02' W 093°14'2 4.3
2017-Oct-08 01:00N 30°03' W 093°16'2 4.1
2017-Oct-08 00:30N 30°05' W 093°17'1 1.6
2017-Oct-08 00:00N 30°06' W 093°18'0 1.0
2017-Oct-07 23:30N 30°06' W 093°18'0 0.0
2017-Oct-07 23:00N 30°06' W 093°18'0 0.0
2017-Oct-07 22:30N 30°06' W 093°18'0 0.1
2017-Oct-07 22:00N 30°06' W 093°18'0 0.1
2017-Oct-07 21:30N 30°06' W 093°18'0 0.1
2017-Oct-07 21:00N 30°06' W 093°18'0 0.1
2017-Oct-07 20:30N 30°06' W 093°18'1 1.1
2017-Oct-07 20:00N 30°06' W 093°19'0 0.3
2017-Oct-07 19:30N 30°06' W 093°19'0 0.0
2017-Oct-07 18:58N 30°06' W 093°19'1 2.2
2017-Oct-07 18:30N 30°06' W 093°19'3 5.4
2017-Oct-07 18:00N 30°04' W 093°22'3 6.6
2017-Oct-07 17:30N 30°04' W 093°25'3 6.8
2017-Oct-07 17:00N 30°04' W 093°29'3 6.8
2017-Oct-07 16:30N 30°04' W 093°33'3 6.8
2017-Oct-07 16:00N 30°04' W 093°37'73 5.3
2017-Oct-07 02:06N 29°30' W 094°52'1 8.3
2017-Oct-07 02:00N 29°30' W 094°52'4 8.1
2017-Oct-07 01:30N 29°34' W 094°55'4 8.0
2017-Oct-07 01:00N 29°37' W 094°57'4 8.1
2017-Oct-07 00:30N 29°41' W 094°59'3 5.8
2017-Oct-07 00:00N 29°42' W 095°02'1 1.7
2017-Oct-06 23:30N 29°43' W 095°03'0 0.0
2017-Oct-06 23:00N 29°43' W 095°03'0 0.0
2017-Oct-06 22:30N 29°43' W 095°03'0 0.0
2017-Oct-06 21:59N 29°43' W 095°03'0 0.1
2017-Oct-06 21:25N 29°42' W 095°03'0 0.2
2017-Oct-06 21:00N 29°43' W 095°03'0 0.1
2017-Oct-06 20:29N 29°42' W 095°03'0 0.0
2017-Oct-06 19:59N 29°42' W 095°03'0 0.0
2017-Oct-06 19:29N 29°42' W 095°03'0 0.0
2017-Oct-06 18:59N 29°42' W 095°03'0 0.0
2017-Oct-06 18:29N 29°42' W 095°03'0 0.0
2017-Oct-06 17:59N 29°42' W 095°03'0 0.0
2017-Oct-06 17:29N 29°42' W 095°03'0 0.0
2017-Oct-06 16:59N 29°42' W 095°03'0 0.0
2017-Oct-06 16:29N 29°42' W 095°03'0 0.0
2017-Oct-06 15:59N 29°42' W 095°03'0 0.0
2017-Oct-06 15:29N 29°42' W 095°03'0 0.0
2017-Oct-06 14:59N 29°42' W 095°03'0 0.0
2017-Oct-06 14:29N 29°42' W 095°03'0 0.0
2017-Oct-06 13:56N 29°42' W 095°03'0 0.0
2017-Oct-06 13:29N 29°42' W 095°03'0 0.0
2017-Oct-06 12:59N 29°42' W 095°03'0 0.0
2017-Oct-06 12:29N 29°42' W 095°03'0 0.0
2017-Oct-06 11:59N 29°42' W 095°03'0 0.0
2017-Oct-06 11:29N 29°42' W 095°03'0 0.0
2017-Oct-06 10:59N 29°42' W 095°03'0 0.0
2017-Oct-06 10:29N 29°42' W 095°03'0 0.0
2017-Oct-06 09:59N 29°42' W 095°03'0 0.0
2017-Oct-06 09:29N 29°42' W 095°03'0 0.0
2017-Oct-06 08:59N 29°42' W 095°03'0 0.0
2017-Oct-06 08:29N 29°42' W 095°03'0 0.0
2017-Oct-06 07:59N 29°42' W 095°03'0 0.0
2017-Oct-06 07:29N 29°42' W 095°03'0 0.0
2017-Oct-06 06:59N 29°42' W 095°03'0 0.0
2017-Oct-06 06:29N 29°42' W 095°03'0 0.0
2017-Oct-06 05:59N 29°42' W 095°03'0 0.0
2017-Oct-06 05:29N 29°42' W 095°03'0 0.0
2017-Oct-06 04:59N 29°42' W 095°03'0 0.0
2017-Oct-06 04:29N 29°42' W 095°03'0 0.0
2017-Oct-06 03:59N 29°42' W 095°03'0 0.0
2017-Oct-06 03:29N 29°42' W 095°03'0 0.0
2017-Oct-06 02:59N 29°42' W 095°03'0 0.0
2017-Oct-06 02:29N 29°42' W 095°03'0 0.0
2017-Oct-06 01:59N 29°42' W 095°03'0 0.0
2017-Oct-06 01:29N 29°42' W 095°03'0 0.0
2017-Oct-06 00:59N 29°42' W 095°03'0 0.0
2017-Oct-06 00:29N 29°42' W 095°03'0 0.0
2017-Oct-05 23:59N 29°42' W 095°03'0 0.0
2017-Oct-05 23:29N 29°42' W 095°03'0 0.0
2017-Oct-05 22:59N 29°42' W 095°03'0 0.0
2017-Oct-05 22:29N 29°42' W 095°03'0 0.0
2017-Oct-05 21:59N 29°42' W 095°03'0 0.0
2017-Oct-05 21:29N 29°42' W 095°03'0 0.0
2017-Oct-05 20:59N 29°42' W 095°03'0 0.0
2017-Oct-05 20:29N 29°42' W 095°03'0 0.0
2017-Oct-05 19:59N 29°42' W 095°03'0 0.0
2017-Oct-05 19:29N 29°42' W 095°03'0 0.0
2017-Oct-05 18:59N 29°42' W 095°03'0 0.0
2017-Oct-05 18:29N 29°42' W 095°03'0 0.0
2017-Oct-05 17:59N 29°42' W 095°03'0 0.0
2017-Oct-05 17:29N 29°42' W 095°03'0 0.0
2017-Oct-05 16:59N 29°42' W 095°03'0 0.0
2017-Oct-05 15:29N 29°42' W 095°03'0 0.0
2017-Oct-05 14:59N 29°42' W 095°03'0 0.0
2017-Oct-05 14:29N 29°42' W 095°03'0 0.0
2017-Oct-05 13:59N 29°42' W 095°03'0 0.0
2017-Oct-05 13:29N 29°42' W 095°03'0 0.0
2017-Oct-05 12:59N 29°42' W 095°03'0 0.0
2017-Oct-05 12:29N 29°42' W 095°03'0 0.0
2017-Oct-05 11:59N 29°42' W 095°03'0 0.0
2017-Oct-05 11:29N 29°42' W 095°03'0 0.0
2017-Oct-05 10:59N 29°42' W 095°03'0 0.0
2017-Oct-05 10:23N 29°42' W 095°03'0 0.0
2017-Oct-05 09:56N 29°42' W 095°03'0 0.0
2017-Oct-05 09:29N 29°42' W 095°03'0 0.0
2017-Oct-05 08:56N 29°42' W 095°03'0 0.0
2017-Oct-05 08:26N 29°42' W 095°03'0 0.0
2017-Oct-05 07:53N 29°42' W 095°03'0 0.0
2017-Oct-05 07:29N 29°42' W 095°03'0 0.0
2017-Oct-05 06:59N 29°42' W 095°03'0 0.0
2017-Oct-05 06:29N 29°42' W 095°03'0 0.0
2017-Oct-05 05:56N 29°42' W 095°03'0 0.0
2017-Oct-05 05:26N 29°42' W 095°03'0 0.0
2017-Oct-05 04:59N 29°42' W 095°03'0 0.0
2017-Oct-05 04:26N 29°42' W 095°03'0 0.0
2017-Oct-05 03:59N 29°42' W 095°03'0 0.0
2017-Oct-05 03:26N 29°42' W 095°03'0 0.0
2017-Oct-05 02:56N 29°42' W 095°03'0 0.0
2017-Oct-05 02:29N 29°42' W 095°03'0 0.0
2017-Oct-05 01:59N 29°42' W 095°03'0 0.0
2017-Oct-05 01:29N 29°42' W 095°03'0 0.0
2017-Oct-05 00:59N 29°42' W 095°03'0 0.0
2017-Oct-05 00:29N 29°42' W 095°03'0 0.0
2017-Oct-04 23:59N 29°42' W 095°03'0 0.0
2017-Oct-04 23:26N 29°42' W 095°03'0 0.0
2017-Oct-04 22:47N 29°42' W 095°03'0 0.0
2017-Oct-04 22:29N 29°42' W 095°03'0 0.0
2017-Oct-04 21:56N 29°42' W 095°03'0 0.0
2017-Oct-04 21:23N 29°42' W 095°03'0 0.0
2017-Oct-04 20:59N 29°42' W 095°03'0 0.0
2017-Oct-04 20:29N 29°42' W 095°03'0 0.0
2017-Oct-04 19:59N 29°42' W 095°03'0 0.0
2017-Oct-04 19:29N 29°42' W 095°03'0 0.0
2017-Oct-04 18:59N 29°42' W 095°03'0 0.0
2017-Oct-04 18:26N 29°42' W 095°03'0 0.0
2017-Oct-04 17:59N 29°42' W 095°03'0 0.0
2017-Oct-04 17:26N 29°42' W 095°03'0 0.0
2017-Oct-04 16:56N 29°42' W 095°03'0 0.0
2017-Oct-04 16:20N 29°42' W 095°03'0 0.0
2017-Oct-04 15:56N 29°42' W 095°03'0 0.0
2017-Oct-04 15:29N 29°42' W 095°03'0 0.0
2017-Oct-04 14:59N 29°42' W 095°03'0 0.0
2017-Oct-04 14:29N 29°42' W 095°03'0 0.0
2017-Oct-04 13:59N 29°42' W 095°03'0 0.0
2017-Oct-04 13:29N 29°42' W 095°03'0 0.0
2017-Oct-04 12:59N 29°42' W 095°03'0 0.0
2017-Oct-04 12:29N 29°42' W 095°03'0 0.0
2017-Oct-04 11:59N 29°42' W 095°03'0 0.0
2017-Oct-04 11:29N 29°42' W 095°03'0 0.0
2017-Oct-04 10:59N 29°42' W 095°03'0 0.0
2017-Oct-04 10:23N 29°42' W 095°03'0 0.0
2017-Oct-04 09:59N 29°42' W 095°03'  

Dump ship's entire track history